sensor_id;sensor_type;location;lat;lon;timestamp;temperature;humidity
18189;DHT22;9219;50.396;8.546;2023-01-25T00:06:50;2.70;99.90
18189;DHT22;9219;50.396;8.546;2023-01-25T00:09:18;2.70;99.90
18189;DHT22;9219;50.396;8.546;2023-01-25T00:11:46;2.70;99.90
18189;DHT22;9219;50.396;8.546;2023-01-25T00:14:16;2.80;99.90
18189;DHT22;9219;50.396;8.546;2023-01-25T00:16:44;2.80;99.90
18189;DHT22;9219;50.396;8.546;2023-01-25T00:19:12;2.70;99.90
18189;DHT22;9219;50.396;8.546;2023-01-25T00:21:40;2.50;99.90
18189;DHT22;9219;50.396;8.546;2023-01-25T00:24:09;2.60;99.90
18189;DHT22;9219;50.396;8.546;2023-01-25T00:42:21;2.50;99.90
18189;DHT22;9219;50.396;8.546;2023-01-25T00:44:49;2.80;99.90
18189;DHT22;9219;50.396;8.546;2023-01-25T00:47:16;2.70;99.90
18189;DHT22;9219;50.396;8.546;2023-01-25T00:49:45;2.70;99.90
18189;DHT22;9219;50.396;8.546;2023-01-25T00:52:13;2.70;99.90
18189;DHT22;9219;50.396;8.546;2023-01-25T00:54:41;2.80;99.90
18189;DHT22;9219;50.396;8.546;2023-01-25T00:57:09;2.80;99.90
18189;DHT22;9219;50.396;8.546;2023-01-25T01:04:24;2.60;99.90
18189;DHT22;9219;50.396;8.546;2023-01-25T01:06:53;2.70;99.90
18189;DHT22;9219;50.396;8.546;2023-01-25T01:09:22;2.60;99.90
18189;DHT22;9219;50.396;8.546;2023-01-25T01:11:50;2.60;99.90
18189;DHT22;9219;50.396;8.546;2023-01-25T01:14:19;2.60;99.90
18189;DHT22;9219;50.396;8.546;2023-01-25T01:16:47;2.50;99.90
18189;DHT22;9219;50.396;8.546;2023-01-25T01:19:14;2.50;99.90
18189;DHT22;9219;50.396;8.546;2023-01-25T01:24:43;2.60;99.90
18189;DHT22;9219;50.396;8.546;2023-01-25T01:27:11;2.60;99.90
18189;DHT22;9219;50.396;8.546;2023-01-25T01:29:39;2.60;99.90
18189;DHT22;9219;50.396;8.546;2023-01-25T01:32:06;2.60;99.90
18189;DHT22;9219;50.396;8.546;2023-01-25T01:34:34;2.70;99.90
18189;DHT22;9219;50.396;8.546;2023-01-25T01:37:01;2.60;99.90
18189;DHT22;9219;50.396;8.546;2023-01-25T01:39:30;2.60;99.90
18189;DHT22;9219;50.396;8.546;2023-01-25T01:47:04;2.80;99.90
18189;DHT22;9219;50.396;8.546;2023-01-25T01:49:32;2.90;99.90
18189;DHT22;9219;50.396;8.546;2023-01-25T01:52:03;2.80;99.90
18189;DHT22;9219;50.396;8.546;2023-01-25T01:54:37;2.70;99.90
18189;DHT22;9219;50.396;8.546;2023-01-25T01:57:09;2.60;99.90
18189;DHT22;9219;50.396;8.546;2023-01-25T01:59:43;2.60;99.90
18189;DHT22;9219;50.396;8.546;2023-01-25T02:02:14;2.70;99.90
18189;DHT22;9219;50.396;8.546;2023-01-25T02:04:45;2.70;99.90
18189;DHT22;9219;50.396;8.546;2023-01-25T02:10:00;2.70;99.90
18189;DHT22;9219;50.396;8.546;2023-01-25T02:12:28;2.80;99.90
18189;DHT22;9219;50.396;8.546;2023-01-25T02:14:55;2.60;99.90
18189;DHT22;9219;50.396;8.546;2023-01-25T02:17:26;2.50;99.90
18189;DHT22;9219;50.396;8.546;2023-01-25T02:19:59;2.60;99.90
18189;DHT22;9219;50.396;8.546;2023-01-25T02:22:32;2.70;99.90
18189;DHT22;9219;50.396;8.546;2023-01-25T02:25:05;2.60;99.90
18189;DHT22;9219;50.396;8.546;2023-01-25T02:32:41;2.30;99.90
18189;DHT22;9219;50.396;8.546;2023-01-25T02:35:17;2.30;99.90
18189;DHT22;9219;50.396;8.546;2023-01-25T02:37:46;2.40;99.90
18189;DHT22;9219;50.396;8.546;2023-01-25T02:40:20;2.40;99.90
18189;DHT22;9219;50.396;8.546;2023-01-25T02:42:49;2.40;99.90
18189;DHT22;9219;50.396;8.546;2023-01-25T02:45:19;2.60;99.90
18189;DHT22;9219;50.396;8.546;2023-01-25T02:48:06;2.50;99.90
18189;DHT22;9219;50.396;8.546;2023-01-25T02:50:36;2.40;99.90
18189;DHT22;9219;50.396;8.546;2023-01-25T02:53:22;2.50;99.90
18189;DHT22;9219;50.396;8.546;2023-01-25T02:55:50;2.70;99.90
18189;DHT22;9219;50.396;8.546;2023-01-25T02:58:18;2.50;99.90
18189;DHT22;9219;50.396;8.546;2023-01-25T03:00:45;2.60;99.90
18189;DHT22;9219;50.396;8.546;2023-01-25T03:03:12;2.40;99.90
18189;DHT22;9219;50.396;8.546;2023-01-25T03:05:40;2.10;99.90
18189;DHT22;9219;50.396;8.546;2023-01-25T03:08:08;2.20;99.90
18189;DHT22;9219;50.396;8.546;2023-01-25T03:15:44;2.30;99.90
18189;DHT22;9219;50.396;8.546;2023-01-25T03:18:14;2.30;99.90
18189;DHT22;9219;50.396;8.546;2023-01-25T03:20:45;2.30;99.90
18189;DHT22;9219;50.396;8.546;2023-01-25T03:23:15;2.40;99.90
18189;DHT22;9219;50.396;8.546;2023-01-25T03:25:46;2.60;99.90
18189;DHT22;9219;50.396;8.546;2023-01-25T03:28:18;2.40;99.90
18189;DHT22;9219;50.396;8.546;2023-01-25T03:30:51;2.10;99.90
18189;DHT22;9219;50.396;8.546;2023-01-25T03:33:21;2.20;99.90
18189;DHT22;9219;50.396;8.546;2023-01-25T03:40:58;2.20;99.90
18189;DHT22;9219;50.396;8.546;2023-01-25T03:43:29;2.30;99.90
18189;DHT22;9219;50.396;8.546;2023-01-25T03:46:00;2.30;99.90
18189;DHT22;9219;50.396;8.546;2023-01-25T03:48:30;2.40;99.90
18189;DHT22;9219;50.396;8.546;2023-01-25T03:51:06;2.40;99.90
18189;DHT22;9219;50.396;8.546;2023-01-25T03:53:35;2.40;99.90
18189;DHT22;9219;50.396;8.546;2023-01-25T03:56:06;2.40;99.90
18189;DHT22;9219;50.396;8.546;2023-01-25T04:03:44;2.40;99.90
18189;DHT22;9219;50.396;8.546;2023-01-25T04:06:17;2.40;99.90
18189;DHT22;9219;50.396;8.546;2023-01-25T04:08:46;2.40;99.90
18189;DHT22;9219;50.396;8.546;2023-01-25T04:11:15;2.50;99.90
18189;DHT22;9219;50.396;8.546;2023-01-25T04:14:35;2.50;99.90
18189;DHT22;9219;50.396;8.546;2023-01-25T04:17:25;2.60;99.90
18189;DHT22;9219;50.396;8.546;2023-01-25T04:19:54;2.60;99.90
18189;DHT22;9219;50.396;8.546;2023-01-25T04:22:27;2.60;99.90
18189;DHT22;9219;50.396;8.546;2023-01-25T04:25:01;2.60;99.90
18189;DHT22;9219;50.396;8.546;2023-01-25T04:32:39;2.50;99.90
18189;DHT22;9219;50.396;8.546;2023-01-25T04:35:07;2.30;99.90
18189;DHT22;9219;50.396;8.546;2023-01-25T04:37:36;2.30;99.90
18189;DHT22;9219;50.396;8.546;2023-01-25T04:40:05;2.20;99.90
18189;DHT22;9219;50.396;8.546;2023-01-25T04:42:33;2.30;99.90
18189;DHT22;9219;50.396;8.546;2023-01-25T04:45:00;2.30;99.90
18189;DHT22;9219;50.396;8.546;2023-01-25T04:47:31;2.20;99.90
18189;DHT22;9219;50.396;8.546;2023-01-25T04:55:06;2.10;99.90
18189;DHT22;9219;50.396;8.546;2023-01-25T04:57:35;2.10;99.90
18189;DHT22;9219;50.396;8.546;2023-01-25T05:00:04;2.10;99.90
18189;DHT22;9219;50.396;8.546;2023-01-25T05:02:32;2.20;99.90
18189;DHT22;9219;50.396;8.546;2023-01-25T05:05:00;2.30;99.90
18189;DHT22;9219;50.396;8.546;2023-01-25T05:07:30;2.30;99.90
18189;DHT22;9219;50.396;8.546;2023-01-25T05:09:57;2.30;99.90
18189;DHT22;9219;50.396;8.546;2023-01-25T05:17:31;2.30;99.90
18189;DHT22;9219;50.396;8.546;2023-01-25T05:20:02;2.30;99.90
18189;DHT22;9219;50.396;8.546;2023-01-25T05:22:40;2.60;99.90
18189;DHT22;9219;50.396;8.546;2023-01-25T05:25:08;2.40;99.90
18189;DHT22;9219;50.396;8.546;2023-01-25T05:27:56;2.30;99.90
18189;DHT22;9219;50.396;8.546;2023-01-25T05:30:23;2.10;99.90
18189;DHT22;9219;50.396;8.546;2023-01-25T05:32:56;2.10;99.90
18189;DHT22;9219;50.396;8.546;2023-01-25T05:35:52;2.10;99.90
18189;DHT22;9219;50.396;8.546;2023-01-25T05:38:31;2.00;99.90
18189;DHT22;9219;50.396;8.546;2023-01-25T05:41:08;2.00;99.90
18189;DHT22;9219;50.396;8.546;2023-01-25T05:48:22;2.00;99.90
18189;DHT22;9219;50.396;8.546;2023-01-25T05:50:51;2.10;99.90
18189;DHT22;9219;50.396;8.546;2023-01-25T05:53:24;2.10;99.90
18189;DHT22;9219;50.396;8.546;2023-01-25T05:55:51;2.20;99.90
18189;DHT22;9219;50.396;8.546;2023-01-25T05:58:19;2.20;99.90
18189;DHT22;9219;50.396;8.546;2023-01-25T06:00:47;2.20;99.90
18189;DHT22;9219;50.396;8.546;2023-01-25T06:03:17;2.30;99.90
18189;DHT22;9219;50.396;8.546;2023-01-25T06:08:45;2.30;99.90
18189;DHT22;9219;50.396;8.546;2023-01-25T06:11:15;2.20;99.90
18189;DHT22;9219;50.396;8.546;2023-01-25T06:13:44;2.20;99.90
18189;DHT22;9219;50.396;8.546;2023-01-25T06:16:11;2.20;99.90
18189;DHT22;9219;50.396;8.546;2023-01-25T06:18:39;2.00;99.90
18189;DHT22;9219;50.396;8.546;2023-01-25T06:21:07;2.10;99.90
18189;DHT22;9219;50.396;8.546;2023-01-25T06:23:34;2.00;99.90
18189;DHT22;9219;50.396;8.546;2023-01-25T06:31:12;1.80;99.90
18189;DHT22;9219;50.396;8.546;2023-01-25T06:33:44;1.80;99.90
18189;DHT22;9219;50.396;8.546;2023-01-25T06:36:21;1.90;99.90
18189;DHT22;9219;50.396;8.546;2023-01-25T06:38:49;1.90;99.90
18189;DHT22;9219;50.396;8.546;2023-01-25T06:41:19;1.80;99.90
18189;DHT22;9219;50.396;8.546;2023-01-25T06:43:50;2.10;99.90
18189;DHT22;9219;50.396;8.546;2023-01-25T06:46:25;1.80;99.90
18189;DHT22;9219;50.396;8.546;2023-01-25T06:49:04;1.90;99.90
18189;DHT22;9219;50.396;8.546;2023-01-25T06:54:33;1.80;99.90
18189;DHT22;9219;50.396;8.546;2023-01-25T06:57:01;2.00;99.90
18189;DHT22;9219;50.396;8.546;2023-01-25T06:59:29;2.00;99.90
18189;DHT22;9219;50.396;8.546;2023-01-25T07:01:58;2.30;99.90
18189;DHT22;9219;50.396;8.546;2023-01-25T07:04:26;2.20;99.90
18189;DHT22;9219;50.396;8.546;2023-01-25T07:06:54;2.00;99.90
18189;DHT22;9219;50.396;8.546;2023-01-25T07:09:22;2.10;99.90
18189;DHT22;9219;50.396;8.546;2023-01-25T07:16:56;2.00;99.90
18189;DHT22;9219;50.396;8.546;2023-01-25T07:19:25;2.10;99.90
18189;DHT22;9219;50.396;8.546;2023-01-25T07:21:52;2.10;99.90
18189;DHT22;9219;50.396;8.546;2023-01-25T07:24:20;1.90;99.90
18189;DHT22;9219;50.396;8.546;2023-01-25T07:26:52;2.00;99.90
18189;DHT22;9219;50.396;8.546;2023-01-25T07:29:19;2.00;99.90
18189;DHT22;9219;50.396;8.546;2023-01-25T07:31:47;1.80;99.90
18189;DHT22;9219;50.396;8.546;2023-01-25T07:39:20;1.90;99.90
18189;DHT22;9219;50.396;8.546;2023-01-25T07:41:48;2.10;99.90
18189;DHT22;9219;50.396;8.546;2023-01-25T07:44:15;2.00;99.90
18189;DHT22;9219;50.396;8.546;2023-01-25T07:46:43;2.00;99.90
18189;DHT22;9219;50.396;8.546;2023-01-25T07:49:10;1.90;99.90
18189;DHT22;9219;50.396;8.546;2023-01-25T07:51:38;1.90;99.90
18189;DHT22;9219;50.396;8.546;2023-01-25T07:54:05;2.00;99.90
18189;DHT22;9219;50.396;8.546;2023-01-25T08:01:40;2.00;99.90
18189;DHT22;9219;50.396;8.546;2023-01-25T08:04:07;2.00;99.90
18189;DHT22;9219;50.396;8.546;2023-01-25T08:06:37;1.90;99.90
18189;DHT22;9219;50.396;8.546;2023-01-25T08:09:09;1.90;99.90
18189;DHT22;9219;50.396;8.546;2023-01-25T08:11:38;2.00;99.90
18189;DHT22;9219;50.396;8.546;2023-01-25T08:14:05;2.00;99.90
18189;DHT22;9219;50.396;8.546;2023-01-25T08:16:35;2.10;99.90
18189;DHT22;9219;50.396;8.546;2023-01-25T08:19:08;2.10;99.90
18189;DHT22;9219;50.396;8.546;2023-01-25T08:26:03;1.90;99.90
18189;DHT22;9219;50.396;8.546;2023-01-25T08:28:38;2.10;99.90
18189;DHT22;9219;50.396;8.546;2023-01-25T08:31:11;2.00;99.90
18189;DHT22;9219;50.396;8.546;2023-01-25T08:33:40;1.80;99.90
18189;DHT22;9219;50.396;8.546;2023-01-25T08:36:13;1.80;99.90
18189;DHT22;9219;50.396;8.546;2023-01-25T08:38:43;1.80;99.90
18189;DHT22;9219;50.396;8.546;2023-01-25T08:41:20;1.90;99.90
18189;DHT22;9219;50.396;8.546;2023-01-25T08:43:55;1.90;99.90
18189;DHT22;9219;50.396;8.546;2023-01-25T08:51:34;2.00;99.90
18189;DHT22;9219;50.396;8.546;2023-01-25T08:54:03;1.80;99.90
18189;DHT22;9219;50.396;8.546;2023-01-25T08:56:31;1.80;99.90
18189;DHT22;9219;50.396;8.546;2023-01-25T08:58:59;1.90;99.90
18189;DHT22;9219;50.396;8.546;2023-01-25T09:01:30;1.70;99.90
18189;DHT22;9219;50.396;8.546;2023-01-25T09:04:23;1.60;99.90
18189;DHT22;9219;50.396;8.546;2023-01-25T09:06:54;1.70;99.90
18189;DHT22;9219;50.396;8.546;2023-01-25T09:14:10;1.90;99.90
18189;DHT22;9219;50.396;8.546;2023-01-25T09:16:40;2.00;99.90
18189;DHT22;9219;50.396;8.546;2023-01-25T09:19:09;2.10;99.90
18189;DHT22;9219;50.396;8.546;2023-01-25T09:21:38;2.10;99.90
18189;DHT22;9219;50.396;8.546;2023-01-25T09:24:08;2.00;99.90
18189;DHT22;9219;50.396;8.546;2023-01-25T09:26:40;2.00;99.90
18189;DHT22;9219;50.396;8.546;2023-01-25T09:29:14;2.00;99.90
18189;DHT22;9219;50.396;8.546;2023-01-25T09:36:47;2.10;99.90
18189;DHT22;9219;50.396;8.546;2023-01-25T09:39:15;1.60;99.90
18189;DHT22;9219;50.396;8.546;2023-01-25T09:45:10;1.90;99.90
18189;DHT22;9219;50.396;8.546;2023-01-25T09:47:49;2.10;99.90
18189;DHT22;9219;50.396;8.546;2023-01-25T09:51:06;1.90;99.90
18189;DHT22;9219;50.396;8.546;2023-01-25T09:53:48;1.60;99.90
18189;DHT22;9219;50.396;8.546;2023-01-25T10:01:45;1.70;99.90
18189;DHT22;9219;50.396;8.546;2023-01-25T10:04:20;1.90;99.90
18189;DHT22;9219;50.396;8.546;2023-01-25T10:07:05;1.70;99.90
18189;DHT22;9219;50.396;8.546;2023-01-25T10:09:41;1.70;99.90
18189;DHT22;9219;50.396;8.546;2023-01-25T10:12:15;1.90;99.90
18189;DHT22;9219;50.396;8.546;2023-01-25T10:14:46;2.30;99.90
18189;DHT22;9219;50.396;8.546;2023-01-25T10:17:25;2.10;99.90
18189;DHT22;9219;50.396;8.546;2023-01-25T10:20:14;2.00;99.90
18189;DHT22;9219;50.396;8.546;2023-01-25T10:25:45;2.10;99.90
18189;DHT22;9219;50.396;8.546;2023-01-25T10:28:29;2.10;99.90
18189;DHT22;9219;50.396;8.546;2023-01-25T10:31:04;2.10;99.90
18189;DHT22;9219;50.396;8.546;2023-01-25T10:33:43;1.90;99.90
18189;DHT22;9219;50.396;8.546;2023-01-25T10:36:21;1.90;99.90
18189;DHT22;9219;50.396;8.546;2023-01-25T10:38:54;1.80;99.90
18189;DHT22;9219;50.396;8.546;2023-01-25T10:41:33;1.90;99.90
18189;DHT22;9219;50.396;8.546;2023-01-25T10:44:03;1.90;99.90
18189;DHT22;9219;50.396;8.546;2023-01-25T10:56:39;2.10;99.90
18189;DHT22;9219;50.396;8.546;2023-01-25T11:03:44;2.10;99.90
18189;DHT22;9219;50.396;8.546;2023-01-25T11:06:36;2.30;99.90
18189;DHT22;9219;50.396;8.546;2023-01-25T11:09:36;2.50;99.90
18189;DHT22;9219;50.396;8.546;2023-01-25T11:12:26;2.60;99.90
18189;DHT22;9219;50.396;8.546;2023-01-25T11:15:35;2.60;99.90
18189;DHT22;9219;50.396;8.546;2023-01-25T11:18:33;2.50;99.90
18189;DHT22;9219;50.396;8.546;2023-01-25T11:21:12;2.40;99.90
18189;DHT22;9219;50.396;8.546;2023-01-25T11:24:02;2.30;99.90
18189;DHT22;9219;50.396;8.546;2023-01-25T11:26:37;2.30;99.90
18189;DHT22;9219;50.396;8.546;2023-01-25T11:31:52;2.40;99.90
18189;DHT22;9219;50.396;8.546;2023-01-25T11:34:24;2.20;99.90
18189;DHT22;9219;50.396;8.546;2023-01-25T11:37:10;2.10;99.90
18189;DHT22;9219;50.396;8.546;2023-01-25T11:39:49;2.20;99.90
18189;DHT22;9219;50.396;8.546;2023-01-25T11:42:29;2.00;99.90
18189;DHT22;9219;50.396;8.546;2023-01-25T11:48:02;2.20;99.90
18189;DHT22;9219;50.396;8.546;2023-01-25T11:55:54;2.20;99.90
18189;DHT22;9219;50.396;8.546;2023-01-25T12:01:59;2.30;99.90
18189;DHT22;9219;50.396;8.546;2023-01-25T12:04:48;2.30;99.90
18189;DHT22;9219;50.396;8.546;2023-01-25T12:07:27;2.40;99.90
18189;DHT22;9219;50.396;8.546;2023-01-25T12:10:18;2.40;99.90
18189;DHT22;9219;50.396;8.546;2023-01-25T12:13:10;2.10;99.90
18189;DHT22;9219;50.396;8.546;2023-01-25T12:30:20;2.10;99.90
18189;DHT22;9219;50.396;8.546;2023-01-25T12:33:01;1.70;99.90
18189;DHT22;9219;50.396;8.546;2023-01-25T12:35:44;2.00;99.90
18189;DHT22;9219;50.396;8.546;2023-01-25T12:38:25;1.70;99.90
18189;DHT22;9219;50.396;8.546;2023-01-25T12:40:59;1.20;99.90
18189;DHT22;9219;50.396;8.546;2023-01-25T12:43:35;1.50;99.90
18189;DHT22;9219;50.396;8.546;2023-01-25T12:46:22;1.90;99.90
18189;DHT22;9219;50.396;8.546;2023-01-25T12:57:04;1.80;99.90
18189;DHT22;9219;50.396;8.546;2023-01-25T12:59:46;1.90;99.90
18189;DHT22;9219;50.396;8.546;2023-01-25T13:02:51;2.10;99.90
18189;DHT22;9219;50.396;8.546;2023-01-25T13:05:41;2.00;99.90
18189;DHT22;9219;50.396;8.546;2023-01-25T13:08:24;1.90;99.90
18189;DHT22;9219;50.396;8.546;2023-01-25T13:11:11;2.10;99.90
18189;DHT22;9219;50.396;8.546;2023-01-25T13:13:43;2.20;99.90
18189;DHT22;9219;50.396;8.546;2023-01-25T13:25:18;2.40;99.90
18189;DHT22;9219;50.396;8.546;2023-01-25T13:27:50;2.40;99.90
18189;DHT22;9219;50.396;8.546;2023-01-25T13:30:38;2.40;99.90
18189;DHT22;9219;50.396;8.546;2023-01-25T13:33:31;2.60;99.90
18189;DHT22;9219;50.396;8.546;2023-01-25T13:45:13;2.70;99.90
18189;DHT22;9219;50.396;8.546;2023-01-25T13:47:58;2.60;99.90
18189;DHT22;9219;50.396;8.546;2023-01-25T13:50:31;2.40;99.90
18189;DHT22;9219;50.396;8.546;2023-01-25T13:53:05;2.40;99.90
18189;DHT22;9219;50.396;8.546;2023-01-25T13:55:41;2.50;99.90
18189;DHT22;9219;50.396;8.546;2023-01-25T13:58:13;2.40;99.90
18189;DHT22;9219;50.396;8.546;2023-01-25T14:00:48;2.40;99.90
18189;DHT22;9219;50.396;8.546;2023-01-25T14:11:20;2.50;99.90
18189;DHT22;9219;50.396;8.546;2023-01-25T14:13:58;2.50;99.90
18189;DHT22;9219;50.396;8.546;2023-01-25T14:16:27;2.50;99.90
18189;DHT22;9219;50.396;8.546;2023-01-25T14:19:10;2.50;99.90
18189;DHT22;9219;50.396;8.546;2023-01-25T14:21:45;2.60;99.90
18189;DHT22;9219;50.396;8.546;2023-01-25T14:24:16;2.80;99.90
18189;DHT22;9219;50.396;8.546;2023-01-25T14:26:45;3.20;99.90
18189;DHT22;9219;50.396;8.546;2023-01-25T14:29:22;3.30;99.90
18189;DHT22;9219;50.396;8.546;2023-01-25T14:36:40;2.80;99.90
18189;DHT22;9219;50.396;8.546;2023-01-25T14:39:28;2.50;99.90
18189;DHT22;9219;50.396;8.546;2023-01-25T14:41:57;2.40;99.90
18189;DHT22;9219;50.396;8.546;2023-01-25T14:44:31;2.30;99.90
18189;DHT22;9219;50.396;8.546;2023-01-25T14:47:25;2.30;99.90
18189;DHT22;9219;50.396;8.546;2023-01-25T14:50:31;2.30;99.90
18189;DHT22;9219;50.396;8.546;2023-01-25T14:53:11;2.70;99.90
18189;DHT22;9219;50.396;8.546;2023-01-25T14:55:43;2.70;99.90
18189;DHT22;9219;50.396;8.546;2023-01-25T14:58:16;2.80;99.90
18189;DHT22;9219;50.396;8.546;2023-01-25T15:03:42;2.40;99.90
18189;DHT22;9219;50.396;8.546;2023-01-25T15:06:14;2.40;99.90
18189;DHT22;9219;50.396;8.546;2023-01-25T15:08:48;2.40;99.90
18189;DHT22;9219;50.396;8.546;2023-01-25T15:11:42;2.50;99.90
18189;DHT22;9219;50.396;8.546;2023-01-25T15:15:24;2.30;99.90
18189;DHT22;9219;50.396;8.546;2023-01-25T15:18:48;2.50;99.90
18189;DHT22;9219;50.396;8.546;2023-01-25T15:21:24;2.30;99.90
18189;DHT22;9219;50.396;8.546;2023-01-25T15:25:09;2.40;99.90
18189;DHT22;9219;50.396;8.546;2023-01-25T15:28:44;2.30;99.90
18189;DHT22;9219;50.396;8.546;2023-01-25T15:39:50;2.30;99.90
18189;DHT22;9219;50.396;8.546;2023-01-25T15:42:18;2.30;99.90
18189;DHT22;9219;50.396;8.546;2023-01-25T15:44:46;2.40;99.90
18189;DHT22;9219;50.396;8.546;2023-01-25T15:47:15;2.40;99.90
18189;DHT22;9219;50.396;8.546;2023-01-25T15:49:46;2.30;99.90
18189;DHT22;9219;50.396;8.546;2023-01-25T15:52:15;2.30;99.90
18189;DHT22;9219;50.396;8.546;2023-01-25T15:54:43;2.40;99.90
18189;DHT22;9219;50.396;8.546;2023-01-25T16:00:17;2.40;99.90
18189;DHT22;9219;50.396;8.546;2023-01-25T16:02:46;2.30;99.90
18189;DHT22;9219;50.396;8.546;2023-01-25T16:05:14;2.30;99.90
18189;DHT22;9219;50.396;8.546;2023-01-25T16:07:43;2.20;99.90
18189;DHT22;9219;50.396;8.546;2023-01-25T16:10:19;2.00;99.90
18189;DHT22;9219;50.396;8.546;2023-01-25T16:12:49;2.10;99.90
18189;DHT22;9219;50.396;8.546;2023-01-25T16:17:59;2.00;99.90
18189;DHT22;9219;50.396;8.546;2023-01-25T16:20:28;2.20;99.90
18189;DHT22;9219;50.396;8.546;2023-01-25T16:22:56;2.20;99.90
18189;DHT22;9219;50.396;8.546;2023-01-25T16:25:25;2.10;99.90
18189;DHT22;9219;50.396;8.546;2023-01-25T16:27:53;2.10;99.90
18189;DHT22;9219;50.396;8.546;2023-01-25T16:30:24;2.20;99.90
18189;DHT22;9219;50.396;8.546;2023-01-25T16:32:54;2.30;99.90
18189;DHT22;9219;50.396;8.546;2023-01-25T16:40:48;2.20;99.90
18189;DHT22;9219;50.396;8.546;2023-01-25T16:43:29;2.30;99.90
18189;DHT22;9219;50.396;8.546;2023-01-25T16:46:17;2.10;99.90
18189;DHT22;9219;50.396;8.546;2023-01-25T16:49:05;2.20;99.90
18189;DHT22;9219;50.396;8.546;2023-01-25T16:51:43;2.20;99.90
18189;DHT22;9219;50.396;8.546;2023-01-25T16:54:28;2.00;99.90
18189;DHT22;9219;50.396;8.546;2023-01-25T17:00:21;1.90;99.90
18189;DHT22;9219;50.396;8.546;2023-01-25T17:08:15;1.90;99.90
18189;DHT22;9219;50.396;8.546;2023-01-25T17:10:54;1.80;99.90
18189;DHT22;9219;50.396;8.546;2023-01-25T17:13:24;1.70;99.90
18189;DHT22;9219;50.396;8.546;2023-01-25T17:15:54;1.80;99.90
18189;DHT22;9219;50.396;8.546;2023-01-25T17:18:36;1.70;99.90
18189;DHT22;9219;50.396;8.546;2023-01-25T17:21:07;1.90;99.90
18189;DHT22;9219;50.396;8.546;2023-01-25T17:23:51;1.90;99.90
18189;DHT22;9219;50.396;8.546;2023-01-25T17:36:29;1.70;99.90
18189;DHT22;9219;50.396;8.546;2023-01-25T17:39:03;1.90;99.90
18189;DHT22;9219;50.396;8.546;2023-01-25T17:41:38;1.60;99.90
18189;DHT22;9219;50.396;8.546;2023-01-25T17:44:09;1.60;99.90
18189;DHT22;9219;50.396;8.546;2023-01-25T17:46:38;1.80;99.90
18189;DHT22;9219;50.396;8.546;2023-01-25T17:49:08;2.20;99.90
18189;DHT22;9219;50.396;8.546;2023-01-25T17:51:38;2.20;99.90
18189;DHT22;9219;50.396;8.546;2023-01-25T17:54:19;1.90;99.90
18189;DHT22;9219;50.396;8.546;2023-01-25T17:56:59;1.90;99.90
18189;DHT22;9219;50.396;8.546;2023-01-25T18:04:34;1.70;99.90
18189;DHT22;9219;50.396;8.546;2023-01-25T18:07:03;1.60;99.90
18189;DHT22;9219;50.396;8.546;2023-01-25T18:09:32;1.40;99.90
18189;DHT22;9219;50.396;8.546;2023-01-25T18:12:01;1.50;99.90
18189;DHT22;9219;50.396;8.546;2023-01-25T18:14:29;1.60;99.90
18189;DHT22;9219;50.396;8.546;2023-01-25T18:16:57;1.90;99.90
18189;DHT22;9219;50.396;8.546;2023-01-25T18:22:11;1.60;99.90
18189;DHT22;9219;50.396;8.546;2023-01-25T18:24:46;1.60;99.90
18189;DHT22;9219;50.396;8.546;2023-01-25T18:27:18;1.60;99.90
18189;DHT22;9219;50.396;8.546;2023-01-25T18:29:54;0.90;99.90
18189;DHT22;9219;50.396;8.546;2023-01-25T18:32:28;0.70;99.90
18189;DHT22;9219;50.396;8.546;2023-01-25T18:34:59;1.00;99.90
18189;DHT22;9219;50.396;8.546;2023-01-25T18:37:29;1.00;99.90
18189;DHT22;9219;50.396;8.546;2023-01-25T18:45:28;0.90;99.90
18189;DHT22;9219;50.396;8.546;2023-01-25T18:47:58;1.50;99.90
18189;DHT22;9219;50.396;8.546;2023-01-25T18:50:29;1.50;99.90
18189;DHT22;9219;50.396;8.546;2023-01-25T18:53:01;1.70;99.90
18189;DHT22;9219;50.396;8.546;2023-01-25T18:55:34;1.80;99.90
18189;DHT22;9219;50.396;8.546;2023-01-25T18:58:04;1.50;99.90
18189;DHT22;9219;50.396;8.546;2023-01-25T19:00:34;1.40;99.90
18189;DHT22;9219;50.396;8.546;2023-01-25T19:08:09;1.20;99.90
18189;DHT22;9219;50.396;8.546;2023-01-25T19:10:37;1.20;99.90
18189;DHT22;9219;50.396;8.546;2023-01-25T19:13:06;1.40;99.90
18189;DHT22;9219;50.396;8.546;2023-01-25T19:15:33;1.50;99.90
18189;DHT22;9219;50.396;8.546;2023-01-25T19:18:03;1.50;99.90
18189;DHT22;9219;50.396;8.546;2023-01-25T19:20:31;1.60;99.90
18189;DHT22;9219;50.396;8.546;2023-01-25T19:23:03;1.50;99.90
18189;DHT22;9219;50.396;8.546;2023-01-25T19:30:47;1.60;99.90
18189;DHT22;9219;50.396;8.546;2023-01-25T19:33:18;1.50;99.90
18189;DHT22;9219;50.396;8.546;2023-01-25T19:35:48;1.20;99.90
18189;DHT22;9219;50.396;8.546;2023-01-25T19:38:28;1.10;99.90
18189;DHT22;9219;50.396;8.546;2023-01-25T19:41:11;1.10;99.90
18189;DHT22;9219;50.396;8.546;2023-01-25T19:43:40;1.20;99.90
18189;DHT22;9219;50.396;8.546;2023-01-25T19:53:13;1.60;99.90
18189;DHT22;9219;50.396;8.546;2023-01-25T20:01:42;1.90;99.90
18189;DHT22;9219;50.396;8.546;2023-01-25T20:04:18;1.80;99.90
18189;DHT22;9219;50.396;8.546;2023-01-25T20:06:50;1.80;99.90
18189;DHT22;9219;50.396;8.546;2023-01-25T20:09:20;1.90;99.90
18189;DHT22;9219;50.396;8.546;2023-01-25T20:11:56;1.40;99.90
18189;DHT22;9219;50.396;8.546;2023-01-25T20:14:27;0.60;99.90
18189;DHT22;9219;50.396;8.546;2023-01-25T20:21:06;-0.30;99.90
18189;DHT22;9219;50.396;8.546;2023-01-25T20:23:54;-0.20;99.90
18189;DHT22;9219;50.396;8.546;2023-01-25T20:27:39;0.10;99.90
18189;DHT22;9219;50.396;8.546;2023-01-25T20:30:35;0.00;99.90
18189;DHT22;9219;50.396;8.546;2023-01-25T20:33:04;0.50;99.90
18189;DHT22;9219;50.396;8.546;2023-01-25T20:35:35;0.30;99.90
18189;DHT22;9219;50.396;8.546;2023-01-25T20:38:08;0.60;99.90
18189;DHT22;9219;50.396;8.546;2023-01-25T20:40:39;0.50;99.90
18189;DHT22;9219;50.396;8.546;2023-01-25T20:43:10;0.50;99.90
18189;DHT22;9219;50.396;8.546;2023-01-25T20:50:47;0.70;99.90
18189;DHT22;9219;50.396;8.546;2023-01-25T20:53:17;0.60;99.90
18189;DHT22;9219;50.396;8.546;2023-01-25T20:55:54;0.90;99.90
18189;DHT22;9219;50.396;8.546;2023-01-25T20:58:25;0.70;99.90
18189;DHT22;9219;50.396;8.546;2023-01-25T21:00:55;1.00;99.90
18189;DHT22;9219;50.396;8.546;2023-01-25T21:03:24;0.90;99.90
18189;DHT22;9219;50.396;8.546;2023-01-25T21:05:59;1.00;99.90
18189;DHT22;9219;50.396;8.546;2023-01-25T21:13:53;0.60;99.90
18189;DHT22;9219;50.396;8.546;2023-01-25T21:16:23;1.00;99.90
18189;DHT22;9219;50.396;8.546;2023-01-25T21:18:53;1.20;99.90
18189;DHT22;9219;50.396;8.546;2023-01-25T21:21:34;0.80;99.90
18189;DHT22;9219;50.396;8.546;2023-01-25T21:25:05;1.10;99.90
18189;DHT22;9219;50.396;8.546;2023-01-25T21:27:45;1.00;99.90
18189;DHT22;9219;50.396;8.546;2023-01-25T21:34:23;0.80;99.90
18189;DHT22;9219;50.396;8.546;2023-01-25T21:37:23;0.30;99.90
18189;DHT22;9219;50.396;8.546;2023-01-25T21:48:35;0.60;99.90
18189;DHT22;9219;50.396;8.546;2023-01-25T21:51:50;0.70;99.90
18189;DHT22;9219;50.396;8.546;2023-01-25T21:54:20;0.90;99.90
18189;DHT22;9219;50.396;8.546;2023-01-25T22:03:44;0.80;99.90
18189;DHT22;9219;50.396;8.546;2023-01-25T22:04:48;1.00;99.90
18189;DHT22;9219;50.396;8.546;2023-01-25T22:07:40;1.00;99.90
18189;DHT22;9219;50.396;8.546;2023-01-25T22:10:31;1.20;99.90
18189;DHT22;9219;50.396;8.546;2023-01-25T22:13:09;1.20;99.90
18189;DHT22;9219;50.396;8.546;2023-01-25T22:20:42;1.20;99.90
18189;DHT22;9219;50.396;8.546;2023-01-25T22:23:11;0.90;99.90